Time;durP1;ratioP1;P1;durP2;ratioP2;P2;SDS_P1;SDS_P2;PMS_P1;PMS_P2;Temp;Humidity;BMP_temperature;BMP_pressure;BME280_temperature;BME280_humidity;BME280_pressure;Samples;Min_cycle;Max_cycle;Signal;HPM_P1;HPM_P2
2022/06/15 00:01:29;;;;;;;1.33;0.80;;;;;;;16.34;46.19;99033.53;5093037;28;40778;-74
2022/06/15 00:04:00;;;;;;;1.40;1.03;;;;;;;16.30;46.41;99024.09;5110010;28;41705;-75
2022/06/15 00:06:31;;;;;;;0.93;0.93;;;;;;;16.24;46.70;99024.59;5109876;28;41981;-74
2022/06/15 00:09:00;;;;;;;1.30;1.10;;;;;;;16.21;46.72;99022.16;5076494;28;40620;-76
2022/06/15 00:11:30;;;;;;;0.83;0.83;;;;;;;16.22;46.59;99026.53;5092891;28;42703;-74
2022/06/15 00:14:00;;;;;;;1.40;0.93;;;;;;;16.21;46.56;99024.84;5127600;27;43388;-76
2022/06/15 00:16:28;;;;;;;0.80;0.80;;;;;;;16.19;47.05;99021.47;5094337;28;42833;-74
2022/06/15 00:18:55;;;;;;;1.40;1.30;;;;;;;16.16;47.07;99028.75;5093138;28;39967;-76
2022/06/15 00:21:23;;;;;;;1.73;0.90;;;;;;;16.15;46.94;99032.41;5126959;27;41579;-74
2022/06/15 00:23:52;;;;;;;1.10;1.00;;;;;;;16.13;47.21;99034.34;5093080;28;43438;-75
2022/06/15 00:26:20;;;;;;;1.10;1.00;;;;;;;16.11;47.27;99033.63;5109535;28;42856;-74
2022/06/15 00:28:47;;;;;;;1.37;1.00;;;;;;;16.10;47.33;99031.91;5075866;28;38866;-75
2022/06/15 00:31:15;;;;;;;1.00;0.93;;;;;;;16.07;47.38;99029.50;5109456;28;40836;-74
2022/06/15 00:33:43;;;;;;;1.30;1.00;;;;;;;16.03;47.19;99033.41;5075437;28;42075;-76
2022/06/15 00:36:13;;;;;;;0.90;0.90;;;;;;;16.01;47.59;99032.69;5075660;28;41298;-75
2022/06/15 00:38:44;;;;;;;1.10;0.93;;;;;;;15.98;47.37;99027.59;5075738;28;38996;-74
2022/06/15 00:41:17;;;;;;;0.80;0.80;;;;;;;15.94;47.91;99033.31;5093724;28;42196;-77
2022/06/15 00:43:47;;;;;;;1.10;1.00;;;;;;;15.90;47.27;99030.03;5124172;27;42904;-77
2022/06/15 00:46:21;;;;;;;1.10;1.00;;;;;;;15.85;47.38;99029.56;5126639;27;42310;-74
2022/06/15 00:48:52;;;;;;;0.87;0.77;;;;;;;15.81;47.74;99025.47;5109553;28;40779;-76
2022/06/15 00:51:21;;;;;;;2.07;1.03;;;;;;;15.76;48.06;99031.16;5109073;28;40721;-75
2022/06/15 00:53:49;;;;;;;1.63;1.10;;;;;;;15.70;48.45;99034.31;5126724;27;42721;-76
2022/06/15 00:56:19;;;;;;;0.80;0.80;;;;;;;15.65;48.40;99030.34;5109170;28;41182;-76
2022/06/15 00:58:51;;;;;;;1.07;0.70;;;;;;;15.59;48.37;99037.00;5109679;28;40037;-74
2022/06/15 01:01:19;;;;;;;0.90;0.90;;;;;;;15.53;48.71;99036.63;5125027;27;41841;-75
2022/06/15 01:03:49;;;;;;;2.27;1.20;;;;;;;15.48;48.41;99036.13;5092622;28;42655;-75
2022/06/15 01:06:36;;;;;;;1.00;1.00;;;;;;;15.41;48.51;99036.63;5124496;27;42074;-75
2022/06/15 01:09:13;;;;;;;1.43;1.13;;;;;;;15.36;48.69;99030.78;5090757;28;39898;-76
2022/06/15 01:12:17;;;;;;;0.80;0.77;;;;;;;15.32;48.52;99032.03;5090906;28;41831;-76
2022/06/15 01:15:20;;;;;;;1.73;0.83;;;;;;;15.27;49.06;99028.88;5093491;28;42571;-76
2022/06/15 01:18:04;;;;;;;0.87;0.87;;;;;;;15.24;49.71;99029.09;5070670;28;42327;-74
2022/06/15 01:20:53;;;;;;;1.13;0.73;;;;;;;15.11;49.76;99001.69;5123391;27;40971;-77
2022/06/15 01:23:51;;;;;;;1.07;1.00;;;;;;;15.20;49.55;99022.31;5123446;27;42643;-75
2022/06/15 01:27:03;;;;;;;1.27;1.00;;;;;;;15.20;50.25;99022.31;5126018;27;42405;-74
2022/06/15 01:29:51;;;;;;;1.53;1.43;;;;;;;15.21;51.70;99007.97;5089044;28;43145;-74
2022/06/15 01:32:31;;;;;;;1.20;1.10;;;;;;;15.20;51.44;99006.31;5108569;28;39222;-75
2022/06/15 01:35:08;;;;;;;1.23;1.13;;;;;;;15.19;51.15;99007.28;5109283;28;41899;-76
2022/06/15 01:37:42;;;;;;;1.03;1.00;;;;;;;15.19;50.86;99012.63;5091785;28;43781;-77
2022/06/15 01:40:20;;;;;;;2.00;1.10;;;;;;;15.17;51.18;99011.88;5123080;27;43248;-76
2022/06/15 01:43:00;;;;;;;1.20;1.10;;;;;;;15.11;51.67;99007.03;5091971;28;39940;-75
2022/06/15 01:45:33;;;;;;;1.63;1.50;;;;;;;14.85;52.11;98960.19;5089029;28;41774;-76
2022/06/15 01:48:07;;;;;;;1.10;1.00;;;;;;;15.13;52.50;99005.09;5075140;28;41696;-76
2022/06/15 01:50:39;;;;;;;1.40;1.30;;;;;;;15.14;52.53;99016.59;5089484;28;42301;-75
2022/06/15 01:53:13;;;;;;;1.50;1.27;;;;;;;15.12;52.28;99013.22;5090302;28;40667;-77
2022/06/15 01:55:46;;;;;;;1.60;1.40;;;;;;;15.10;52.26;99010.66;5122881;27;42687;-74
2022/06/15 01:58:17;;;;;;;1.30;0.90;;;;;;;15.04;52.46;99003.16;5109004;28;42792;-75
2022/06/15 02:00:53;;;;;;;1.93;1.37;;;;;;;15.06;52.53;99009.22;5074546;28;41456;-77
2022/06/15 02:03:29;;;;;;;1.20;0.90;;;;;;;14.93;52.27;98989.81;5108456;28;38888;-77
2022/06/15 02:06:09;;;;;;;2.20;1.00;;;;;;;14.96;52.02;99014.41;5089137;28;41622;-74
2022/06/15 02:08:50;;;;;;;1.77;1.17;;;;;;;14.93;51.87;99013.81;5088473;28;42961;-76
2022/06/15 02:11:29;;;;;;;1.30;1.20;;;;;;;14.86;51.81;99013.41;5089312;28;43246;-77
2022/06/15 02:14:03;;;;;;;0.73;0.73;;;;;;;14.81;51.96;99014.75;5108547;28;40075;-74
2022/06/15 02:16:34;;;;;;;1.60;1.27;;;;;;;14.72;51.94;99005.63;5123847;27;41577;-77
2022/06/15 02:19:12;;;;;;;2.13;1.07;;;;;;;14.69;51.84;99016.56;5074327;28;44623;-74
2022/06/15 02:21:44;;;;;;;0.90;0.90;;;;;;;14.64;51.89;99016.91;5107877;27;41917;-74
2022/06/15 02:24:14;;;;;;;1.20;1.10;;;;;;;14.59;52.23;99003.06;5088297;28;40971;-75
2022/06/15 02:26:43;;;;;;;1.63;1.20;;;;;;;14.55;52.46;99006.94;5074062;28;42050;-76
2022/06/15 02:29:16;;;;;;;1.37;1.10;;;;;;;14.56;52.32;99018.47;5090961;28;43768;-76
2022/06/15 02:31:48;;;;;;;1.60;1.20;;;;;;;14.55;52.35;99014.94;5090936;28;41090;-77
2022/06/15 02:34:18;;;;;;;1.10;1.00;;;;;;;14.51;52.73;99013.47;5090968;28;39980;-77
2022/06/15 02:36:46;;;;;;;1.50;1.00;;;;;;;14.52;53.08;99015.16;5107874;28;42618;-74
2022/06/15 02:39:18;;;;;;;1.37;1.27;;;;;;;14.48;53.53;99010.19;5074334;28;42009;-77
2022/06/15 02:41:56;;;;;;;1.07;1.00;;;;;;;14.48;53.63;99008.34;5107477;28;43584;-74
2022/06/15 02:44:27;;;;;;;1.30;1.20;;;;;;;14.49;54.34;98998.56;5108777;28;38407;-74
2022/06/15 02:46:57;;;;;;;1.30;1.20;;;;;;;14.48;53.83;99003.03;5125192;27;41545;-75
2022/06/15 02:49:27;;;;;;;1.57;1.37;;;;;;;14.48;54.87;98995.03;5124933;27;42872;-77
2022/06/15 02:51:58;;;;;;;1.43;1.27;;;;;;;14.48;55.19;98988.84;5107306;28;44048;-75
2022/06/15 02:54:33;;;;;;;1.03;1.00;;;;;;;14.48;54.58;98992.38;5107823;28;38538;-76
2022/06/15 02:57:09;;;;;;;1.97;1.20;;;;;;;14.45;54.12;98997.97;5107426;28;42056;-76
2022/06/15 02:59:38;;;;;;;0.90;0.90;;;;;;;14.46;53.96;99005.00;5090832;28;42573;-75
2022/06/15 03:02:07;;;;;;;1.67;1.03;;;;;;;14.44;54.03;99006.91;5107265;28;40912;-74
2022/06/15 03:04:41;;;;;;;1.33;1.10;;;;;;;14.42;54.01;99003.50;5108036;28;38777;-74
2022/06/15 03:07:11;;;;;;;0.70;0.70;;;;;;;14.42;54.31;99000.84;5124679;27;41789;-77
2022/06/15 03:09:40;;;;;;;1.70;1.20;;;;;;;14.38;54.47;99002.00;5124634;27;42463;-77
2022/06/15 03:12:11;;;;;;;1.87;1.30;;;;;;;14.36;54.71;98998.59;5089902;28;42280;-76
2022/06/15 03:14:39;;;;;;;1.83;1.10;;;;;;;14.31;54.59;99001.63;5107680;28;39726;-77
2022/06/15 03:17:13;;;;;;;1.63;1.43;;;;;;;14.27;54.69;98999.31;5073665;28;40658;-77
2022/06/15 03:20:02;;;;;;;1.90;1.73;;;;;;;14.22;54.13;99002.31;5122672;27;43696;-77
2022/06/15 03:22:33;;;;;;;1.87;1.40;;;;;;;14.20;54.64;99004.25;5124302;27;43140;-77
2022/06/15 03:25:03;;;;;;;1.43;1.30;;;;;;;14.18;54.55;99003.53;5125035;27;39632;-77
2022/06/15 03:27:33;;;;;;;1.50;1.40;;;;;;;14.16;54.93;99002.78;5107244;28;40780;-75
2022/06/15 03:30:04;;;;;;;2.73;1.30;;;;;;;14.13;54.75;98997.66;5073369;28;43418;-77
2022/06/15 03:32:39;;;;;;;3.83;1.33;;;;;;;14.13;54.77;99007.47;5073486;28;41271;-76
2022/06/15 03:35:11;;;;;;;1.30;1.20;;;;;;;14.12;54.71;99009.28;5092705;28;39885;-77
2022/06/15 03:37:39;;;;;;;1.00;1.00;;;;;;;14.10;55.02;99003.22;5110507;28;40346;-76
2022/06/15 03:40:27;;;;;;;1.57;1.30;;;;;;;13.94;54.70;98982.22;5092856;28;43741;-77
2022/06/15 03:42:56;;;;;;;1.30;1.20;;;;;;;14.13;54.66;99012.81;5093721;28;43153;-74
2022/06/15 03:45:26;;;;;;;1.10;1.00;;;;;;;14.16;54.50;99012.59;5094153;28;40275;-77
2022/06/15 03:47:55;;;;;;;1.07;0.97;;;;;;;14.19;54.79;99017.69;5110351;28;42936;-77
2022/06/15 03:50:27;;;;;;;1.20;1.10;;;;;;;14.22;54.87;99017.44;5110583;28;43506;-77
2022/06/15 03:53:00;;;;;;;2.50;1.20;;;;;;;14.26;54.74;99018.91;5077032;28;41163;-74
2022/06/15 03:55:31;;;;;;;0.90;0.90;;;;;;;14.26;54.74;99009.09;5094900;28;40013;-76
2022/06/15 03:57:59;;;;;;;1.30;1.20;;;;;;;14.38;54.59;99025.97;5076724;28;41689;-75
2022/06/15 04:00:30;;;;;;;1.40;1.30;;;;;;;14.44;54.39;99030.91;5076787;28;41305;-76
2022/06/15 04:03:07;;;;;;;1.43;1.20;;;;;;;14.14;54.38;98977.22;5076844;28;42222;-77
2022/06/15 04:05:54;;;;;;;1.20;1.10;;;;;;;14.55;54.15;99025.59;5076835;28;40340;-78
2022/06/15 04:08:38;;;;;;;1.10;1.10;;;;;;;14.64;54.61;99027.56;5076739;28;41072;-78
2022/06/15 04:13:59;;;;;;;1.83;1.10;;;;;;;14.81;54.05;99034.28;5091430;28;42089;-73
2022/06/15 04:16:29;;;;;;;1.10;1.10;;;;;;;14.84;54.33;99025.16;5093250;28;40048;-74
2022/06/15 04:19:02;;;;;;;2.60;1.30;;;;;;;14.91;54.22;99021.06;5093269;28;41774;-74
2022/06/15 04:21:31;;;;;;;1.60;1.13;;;;;;;15.04;54.25;99029.81;5091436;28;43742;-74
2022/06/15 04:23:59;;;;;;;0.80;0.80;;;;;;;15.09;54.17;99024.97;5093189;28;42106;-74
2022/06/15 04:26:29;;;;;;;1.33;1.10;;;;;;;15.07;54.17;99001.09;5092872;28;40679;-74
2022/06/15 04:28:58;;;;;;;2.90;1.20;;;;;;;15.28;54.20;99019.88;5093297;28;44450;-75
2022/06/15 04:31:31;;;;;;;4.33;1.20;;;;;;;15.37;54.19;99018.31;5075765;28;41967;-77
2022/06/15 04:33:59;;;;;;;1.23;1.23;;;;;;;15.44;54.22;99028.38;5127263;27;42896;-75
2022/06/15 04:36:29;;;;;;;1.30;1.20;;;;;;;15.53;53.96;99028.63;5126967;27;40868;-75
2022/06/15 04:39:04;;;;;;;1.00;1.00;;;;;;;15.62;53.83;99038.56;5124283;27;42646;-78
2022/06/15 04:41:38;;;;;;;1.60;1.50;;;;;;;15.71;53.86;99035.16;5125505;27;43846;-74
2022/06/15 04:44:07;;;;;;;1.50;1.37;;;;;;;15.73;54.24;99019.88;5127170;27;41930;-77
2022/06/15 04:46:37;;;;;;;1.50;1.40;;;;;;;15.87;53.89;99027.63;5109554;27;39297;-76
2022/06/15 04:49:05;;;;;;;1.50;1.40;;;;;;;15.96;53.89;99026.84;5110994;28;40578;-77
2022/06/15 04:51:43;;;;;;;2.67;1.30;;;;;;;16.06;53.99;99037.66;5108896;28;41651;-74
2022/06/15 04:54:13;;;;;;;1.87;1.63;;;;;;;16.16;53.71;99034.09;5109544;28;43730;-74
2022/06/15 04:56:45;;;;;;;2.13;1.60;;;;;;;16.30;53.29;99037.47;5110013;28;38901;-74
2022/06/15 04:59:15;;;;;;;1.83;1.40;;;;;;;16.39;53.46;99040.22;5126985;27;41768;-78
2022/06/15 05:01:45;;;;;;;2.33;1.40;;;;;;;16.50;53.42;99047.31;5109183;28;41912;-74
2022/06/15 05:04:15;;;;;;;1.60;1.50;;;;;;;16.62;52.92;99046.31;5089403;28;43495;-77
2022/06/15 05:06:43;;;;;;;2.33;1.53;;;;;;;16.72;53.05;99047.25;5075516;28;38211;-73
2022/06/15 05:09:16;;;;;;;2.40;1.53;;;;;;;16.83;52.83;99049.84;5126538;27;41837;-75
2022/06/15 05:11:48;;;;;;;1.60;1.50;;;;;;;16.95;52.68;99053.31;5125150;27;42700;-75
2022/06/15 05:14:16;;;;;;;1.53;1.30;;;;;;;17.06;52.69;99057.75;5092266;28;42212;-77
2022/06/15 05:16:47;;;;;;;2.43;1.53;;;;;;;17.14;52.50;99050.75;5090935;28;40880;-77
2022/06/15 05:19:18;;;;;;;1.67;1.37;;;;;;;17.28;52.00;99054.91;5123484;27;42667;-74
2022/06/15 05:21:47;;;;;;;1.50;1.40;;;;;;;17.33;52.14;99047.31;5126378;27;42519;-76
2022/06/15 05:24:20;;;;;;;1.23;1.13;;;;;;;17.48;52.23;99051.34;5089021;28;43062;-75
2022/06/15 05:27:01;;;;;;;1.00;1.00;;;;;;;17.63;52.00;99053.66;5109086;28;39085;-75
2022/06/15 05:29:29;;;;;;;2.60;1.50;;;;;;;17.74;51.89;99056.25;5093223;28;41727;-74
2022/06/15 05:32:09;;;;;;;1.57;1.47;;;;;;;17.81;51.83;99062.75;5074481;28;41799;-75
2022/06/15 05:34:37;;;;;;;1.43;1.33;;;;;;;17.77;51.86;99032.72;5126195;27;43126;-76
2022/06/15 05:37:06;;;;;;;1.60;1.50;;;;;;;18.05;51.79;99055.19;5091899;28;39891;-75
2022/06/15 05:39:40;;;;;;;2.23;1.43;;;;;;;18.16;51.49;99052.44;5123092;27;41961;-76
2022/06/15 05:42:08;;;;;;;2.17;1.30;;;;;;;18.30;51.14;99057.34;5108483;28;41588;-73
2022/06/15 05:44:42;;;;;;;3.30;1.70;;;;;;;18.46;50.79;99064.00;5092088;28;43256;-77
2022/06/15 05:47:11;;;;;;;2.13;1.70;;;;;;;18.56;50.43;99065.69;5092056;28;40031;-76
2022/06/15 05:49:44;;;;;;;3.17;1.47;;;;;;;18.75;50.79;99056.00;5088942;28;42753;-73
2022/06/15 05:52:13;;;;;;;4.30;1.80;;;;;;;19.02;49.71;99067.69;5107931;28;42973;-74
2022/06/15 05:54:46;;;;;;;1.10;1.10;;;;;;;19.47;48.71;99069.69;5075158;28;40985;-77
2022/06/15 05:57:19;;;;;;;2.90;1.67;;;;;;;19.65;48.32;99072.47;5107473;27;38844;-78
2022/06/15 05:59:52;;;;;;;1.93;1.63;;;;;;;19.67;48.23;99074.00;5088468;28;42731;-74
2022/06/15 06:02:22;;;;;;;2.73;1.60;;;;;;;19.76;48.21;99071.44;5074331;28;41730;-75
2022/06/15 06:04:51;;;;;;;2.33;1.50;;;;;;;19.82;48.51;99070.84;5092752;28;43242;-77
2022/06/15 06:07:21;;;;;;;1.70;1.60;;;;;;;19.86;48.36;99067.72;5125949;27;39708;-78
2022/06/15 06:09:51;;;;;;;2.80;1.90;;;;;;;19.97;48.23;99072.03;5091494;28;41691;-76
2022/06/15 06:12:19;;;;;;;2.50;1.80;;;;;;;20.02;48.44;99067.06;5107875;28;41397;-76
2022/06/15 06:14:47;;;;;;;1.63;1.53;;;;;;;20.12;47.99;99069.69;5091561;28;42395;-77
2022/06/15 06:17:15;;;;;;;1.93;1.57;;;;;;;20.26;48.48;99059.25;5091091;28;38794;-78
2022/06/15 06:19:42;;;;;;;1.60;1.50;;;;;;;20.40;48.41;99064.13;5108259;28;41786;-79
2022/06/15 06:22:10;;;;;;;2.10;1.50;;;;;;;20.55;47.53;99075.19;5091399;28;43661;-74
2022/06/15 06:24:38;;;;;;;2.63;1.40;;;;;;;20.70;47.65;99070.13;5092243;28;43207;-74
2022/06/15 06:27:08;;;;;;;2.47;1.40;;;;;;;20.72;47.64;99044.75;5092472;28;40946;-75
2022/06/15 06:29:36;;;;;;;2.40;1.90;;;;;;;20.96;47.11;99073.72;5091440;28;41517;-78
2022/06/15 06:32:05;;;;;;;1.80;1.53;;;;;;;21.06;47.13;99073.63;5073583;28;44311;-78
2022/06/15 06:34:33;;;;;;;1.90;1.50;;;;;;;21.20;47.41;99064.16;5125230;27;42195;-77
2022/06/15 06:37:03;;;;;;;1.93;1.70;;;;;;;21.39;47.79;99069.31;5125224;27;39992;-75
2022/06/15 06:39:32;;;;;;;2.63;1.30;;;;;;;21.63;47.07;99063.25;5092303;28;41539;-78
2022/06/15 06:42:02;;;;;;;3.00;1.70;;;;;;;21.91;46.64;99063.84;5090809;28;41499;-75
2022/06/15 06:44:37;;;;;;;2.30;1.90;;;;;;;22.14;46.51;99060.44;5122168;27;42325;-75
2022/06/15 06:47:07;;;;;;;1.77;1.67;;;;;;;22.31;46.32;99055.94;5091008;28;39932;-75
2022/06/15 06:49:36;;;;;;;3.90;2.17;;;;;;;22.56;45.20;99073.84;5092193;28;42142;-76
2022/06/15 06:52:05;;;;;;;2.40;2.00;;;;;;;22.64;44.96;99055.97;5072863;28;41820;-75
2022/06/15 06:54:33;;;;;;;2.23;2.03;;;;;;;22.79;44.04;99081.31;5090728;28;42150;-78
2022/06/15 06:57:01;;;;;;;2.20;2.00;;;;;;;22.84;44.54;99076.28;5092093;28;39877;-76
2022/06/15 06:59:29;;;;;;;2.67;2.33;;;;;;;22.94;44.33;99085.06;5090846;28;42580;-78
2022/06/15 07:01:58;;;;;;;5.07;2.00;;;;;;;23.07;44.82;99071.88;5124910;27;43529;-76
2022/06/15 07:04:26;;;;;;;2.00;1.80;;;;;;;23.53;44.58;99077.56;5073680;28;41234;-77
2022/06/15 07:06:57;;;;;;;3.13;2.33;;;;;;;24.17;43.03;99072.94;5107319;28;38978;-75
2022/06/15 07:09:26;;;;;;;3.60;2.60;;;;;;;24.54;41.99;99073.09;5124640;27;42730;-76
2022/06/15 07:11:53;;;;;;;4.30;2.20;;;;;;;24.85;40.69;99093.88;5094072;28;42831;-74
2022/06/15 07:14:21;;;;;;;2.60;2.40;;;;;;;24.87;41.01;99087.22;5095357;28;42244;-76
2022/06/15 07:16:49;;;;;;;3.97;2.53;;;;;;;24.81;40.38;99092.53;5077297;28;40721;-77
2022/06/15 07:19:18;;;;;;;2.53;2.33;;;;;;;24.77;41.63;99083.06;5094309;28;40781;-77
2022/06/15 07:21:46;;;;;;;5.43;2.90;;;;;;;24.76;40.37;99089.50;5095392;28;42533;-78
2022/06/15 07:24:14;;;;;;;4.93;2.50;;;;;;;24.83;41.54;99085.06;5112285;28;41071;-78
2022/06/15 07:26:47;;;;;;;3.70;2.23;;;;;;;24.96;41.07;99088.06;5111249;28;39937;-78
2022/06/15 07:29:18;;;;;;;3.23;2.93;;;;;;;25.48;40.02;99100.75;5094029;28;42252;-76
2022/06/15 07:31:53;;;;;;;3.17;2.57;;;;;;;26.48;37.68;99105.53;5093701;28;41694;-77
2022/06/15 07:34:24;;;;;;;2.50;2.30;;;;;;;27.74;36.07;99115.75;5110972;28;43020;-76
2022/06/15 07:36:52;;;;;;;2.80;2.37;;;;;;;28.92;34.27;99112.75;5110969;28;41054;-75
2022/06/15 07:39:22;;;;;;;4.00;2.20;;;;;;;29.73;32.59;99122.63;5095049;28;41660;-76
2022/06/15 07:41:50;;;;;;;3.40;2.37;;;;;;;30.59;32.44;99134.19;5093625;28;42291;-79
2022/06/15 07:44:20;;;;;;;3.07;2.40;;;;;;;31.54;30.16;99141.34;5076645;28;41034;-78
2022/06/15 07:46:48;;;;;;;3.27;2.50;;;;;;;32.52;28.81;99143.34;5094822;28;39985;-78
2022/06/15 07:52:05;;;;;;;2.60;2.30;;;;;;;32.79;28.63;99134.53;5092511;28;43730;-77
2022/06/15 07:54:33;;;;;;;4.27;3.10;;;;;;;32.58;28.38;99142.38;5092014;28;42548;-76
2022/06/15 07:57:01;;;;;;;2.77;2.37;;;;;;;32.73;28.35;99140.13;5110661;28;40100;-76
2022/06/15 07:59:29;;;;;;;3.17;2.50;;;;;;;32.92;28.17;99144.47;5094862;28;41691;-76
2022/06/15 08:01:57;;;;;;;2.70;2.47;;;;;;;33.74;27.20;99148.28;5093077;28;42817;-76
2022/06/15 08:04:24;;;;;;;4.23;2.97;;;;;;;35.06;26.06;99145.63;5094647;28;43026;-78
2022/06/15 08:06:52;;;;;;;2.70;2.50;;;;;;;36.07;23.79;99162.22;5110556;28;39959;-79
2022/06/15 08:09:21;;;;;;;3.63;2.70;;;;;;;37.23;23.32;99160.94;5093647;28;41738;-79
2022/06/15 08:14:37;;;;;;;2.97;2.67;;;;;;;40.58;19.94;99167.59;5076485;28;41396;-78
2022/06/15 08:17:06;;;;;;;4.65;2.60;;;;;;;41.88;18.42;99169.84;5094234;28;39781;-79
2022/06/15 08:19:36;;;;;;;2.58;2.38;;;;;;;42.70;17.51;99164.22;5093676;28;41845;-80
2022/06/15 08:22:05;;;;;;;2.92;2.20;;;;;;;43.46;17.40;99177.06;5094268;28;43413;-81
2022/06/15 08:24:37;;;;;;;2.95;2.60;;;;;;;44.03;16.93;99169.44;5094351;28;42713;-77
2022/06/15 08:27:05;;;;;;;2.63;2.40;;;;;;;44.25;16.28;99161.19;5092222;28;40667;-81
2022/06/15 08:29:35;;;;;;;2.45;2.20;;;;;;;43.81;15.93;99155.31;5093007;28;40737;-80
2022/06/15 08:32:03;;;;;;;2.90;2.30;;;;;;;43.08;16.57;99141.97;5092627;28;41765;-79
2022/06/15 08:34:33;;;;;;;2.78;2.58;;;;;;;42.61;17.54;99155.69;5094080;28;42286;-78
2022/06/15 08:37:01;;;;;;;5.90;2.47;;;;;;;42.25;18.32;99141.34;5127384;27;39978;-76
2022/06/15 08:39:29;;;;;;;3.50;2.63;;;;;;;42.36;18.02;99141.22;5092937;28;43147;-78
2022/06/15 08:42:05;;;;;;;3.92;2.50;;;;;;;42.61;17.99;99146.50;5109622;28;41706;-79
2022/06/15 08:44:42;;;;;;;2.60;2.40;;;;;;;43.09;17.28;99144.44;5076016;28;41189;-77
2022/06/15 08:47:28;;;;;;;2.60;2.40;;;;;;;43.62;16.89;99150.63;5075869;28;38882;-77
2022/06/15 08:50:02;;;;;;;2.85;2.60;;;;;;;44.32;16.03;99156.03;5123933;27;41618;-77
2022/06/15 08:52:34;;;;;;;2.65;2.45;;;;;;;44.59;15.80;99154.38;5092960;28;42714;-76
2022/06/15 08:55:08;;;;;;;3.55;2.65;;;;;;;43.99;16.14;99163.66;5092720;28;43145;-77
2022/06/15 08:57:45;;;;;;;2.85;2.50;;;;;;;43.23;16.39;99153.75;5093854;28;40897;-76
2022/06/15 09:00:19;;;;;;;4.95;2.90;;;;;;;42.88;16.67;99155.09;5089841;28;41687;-79
2022/06/15 09:02:57;;;;;;;2.72;2.53;;;;;;;42.99;16.30;99151.00;5092476;28;43859;-79
2022/06/15 09:05:36;;;;;;;3.67;2.50;;;;;;;43.41;16.41;99156.78;5092897;28;42341;-76
2022/06/15 09:08:20;;;;;;;2.83;2.63;;;;;;;43.77;16.24;99154.28;5110229;28;40110;-79
2022/06/15 09:10:52;;;;;;;3.28;2.97;;;;;;;43.59;16.28;99151.22;5092574;28;42186;-80
2022/06/15 09:13:33;;;;;;;2.58;2.38;;;;;;;43.67;16.00;99144.94;5075520;28;41726;-78
2022/06/15 09:16:13;;;;;;;3.05;2.85;;;;;;;43.81;16.12;99138.56;5091331;28;43115;-80
2022/06/15 09:18:46;;;;;;;2.80;2.60;;;;;;;43.70;15.71;99152.69;5090594;28;39689;-80
2022/06/15 09:21:18;;;;;;;2.90;2.53;;;;;;;43.81;15.10;99155.31;5091551;28;41884;-82
2022/06/15 09:23:51;;;;;;;2.75;2.55;;;;;;;44.66;14.97;99151.97;5092480;28;43075;-81
2022/06/15 09:26:23;;;;;;;2.40;2.20;;;;;;;45.49;14.66;99156.25;5124417;27;42229;-78
2022/06/15 09:28:58;;;;;;;2.90;2.58;;;;;;;46.07;14.15;99152.53;5090519;28;40936;-79
2022/06/15 09:31:32;;;;;;;2.50;2.30;;;;;;;46.09;13.36;99153.88;5091187;28;41350;-80
2022/06/15 09:34:03;;;;;;;3.28;2.70;;;;;;;45.30;14.29;99133.22;5090485;28;42714;-79
2022/06/15 09:36:34;;;;;;;2.55;2.35;;;;;;;44.60;14.83;99133.69;5075538;28;41473;-80
2022/06/15 09:39:03;;;;;;;2.70;2.50;;;;;;;44.05;15.38;99136.44;5090356;28;40866;-81
2022/06/15 09:41:41;;;;;;;2.08;1.90;;;;;;;44.35;14.74;99138.66;5093299;28;42772;-83
2022/06/15 09:44:23;;;;;;;3.03;2.53;;;;;;;44.97;14.04;99147.41;5090191;28;42986;-79
2022/06/15 09:46:58;;;;;;;2.30;2.20;;;;;;;45.30;13.95;99141.63;5092151;28;42212;-80
2022/06/15 09:49:41;;;;;;;2.75;2.33;;;;;;;45.40;13.27;99141.34;5090168;28;39765;-80
2022/06/15 09:52:18;;;;;;;2.50;2.17;;;;;;;45.37;14.04;99134.44;5091314;28;41935;-78
2022/06/15 09:54:58;;;;;;;2.65;2.10;;;;;;;46.04;13.73;99119.56;5074720;28;43356;-80
2022/06/15 09:57:26;;;;;;;2.30;1.95;;;;;;;46.72;13.81;99120.97;5125527;27;42599;-79
2022/06/15 09:59:57;;;;;;;3.25;2.30;;;;;;;46.93;13.03;99130.41;5091516;28;40735;-82
2022/06/15 10:02:29;;;;;;;3.25;2.20;;;;;;;46.54;13.13;99130.47;5092007;28;41778;-82
2022/06/15 10:04:59;;;;;;;2.38;2.28;;;;;;;45.95;13.20;99138.31;5126034;27;42187;-77
2022/06/15 10:07:30;;;;;;;2.50;2.30;;;;;;;45.27;13.87;99117.88;5092615;28;43013;-80
2022/06/15 10:10:13;;;;;;;3.42;2.75;;;;;;;44.58;14.63;99117.22;5088453;28;40189;-80
2022/06/15 10:12:57;;;;;;;2.97;2.67;;;;;;;44.34;14.90;99102.63;5091500;28;41724;-80
2022/06/15 10:15:33;;;;;;;2.20;2.08;;;;;;;43.98;14.80;99106.16;5089611;28;42901;-81
2022/06/15 10:18:15;;;;;;;2.92;2.60;;;;;;;43.04;15.27;99107.44;5091057;28;43370;-80
2022/06/15 10:20:54;;;;;;;2.67;2.45;;;;;;;42.36;16.17;99091.09;5089615;28;39929;-80
2022/06/15 10:23:24;;;;;;;3.22;2.45;;;;;;;41.77;16.12;99084.81;5091324;28;41781;-75
2022/06/15 10:25:55;;;;;;;2.70;2.50;;;;;;;41.01;17.23;99065.16;5108392;28;43186;-81
2022/06/15 10:28:26;;;;;;;2.30;2.20;;;;;;;40.39;17.66;99074.97;5089548;28;42167;-82
2022/06/15 10:30:59;;;;;;;2.22;2.03;;;;;;;39.78;17.83;99064.03;5122629;27;40663;-80
2022/06/15 10:33:36;;;;;;;4.65;2.35;;;;;;;39.37;17.96;99057.69;5089530;28;42917;-76
2022/06/15 10:36:17;;;;;;;2.53;2.08;;;;;;;39.63;17.65;99067.66;5088545;28;42733;-79
2022/06/15 10:38:54;;;;;;;2.40;2.22;;;;;;;39.81;18.32;99057.94;5091633;28;41180;-77
2022/06/15 10:41:48;;;;;;;2.43;2.23;;;;;;;39.96;18.34;99037.63;5123397;27;40142;-78
2022/06/15 10:44:29;;;;;;;2.03;1.93;;;;;;;39.76;16.56;99069.84;5090291;28;41338;-81
2022/06/15 10:47:03;;;;;;;2.33;2.00;;;;;;;39.12;16.63;99075.97;5123868;27;42784;-78
2022/06/15 10:49:35;;;;;;;2.97;2.43;;;;;;;38.45;17.85;99063.06;5090950;28;41678;-77
2022/06/15 10:52:04;;;;;;;2.53;2.33;;;;;;;37.89;18.32;99055.59;5090801;28;39946;-76
2022/06/15 11:02:06;;;;;;;2.30;2.10;;;;;;;37.58;19.12;99036.06;5125914;27;20225;-80
2022/06/15 11:03:17;;;;;;;3.53;2.27;;;;;;;37.04;19.50;99029.84;5089025;28;40133;-78
2022/06/15 11:05:47;;;;;;;2.50;2.00;;;;;;;36.96;18.92;99033.91;5087874;28;41868;-80
2022/06/15 11:08:19;;;;;;;2.07;1.93;;;;;;;36.74;19.48;99024.03;5125296;27;42893;-80
2022/06/15 11:10:50;;;;;;;2.47;2.10;;;;;;;36.73;20.61;99014.06;5107371;28;40941;-78
2022/06/15 11:13:34;;;;;;;2.57;2.37;;;;;;;36.85;19.57;99025.78;5125414;27;40969;-81
2022/06/15 11:19:10;;;;;;;2.10;1.90;;;;;;;36.79;19.89;99000.06;5090603;28;43728;-76
2022/06/15 11:21:44;;;;;;;2.13;1.93;;;;;;;36.83;19.48;99011.44;5090257;28;42187;-79
2022/06/15 11:24:22;;;;;;;2.67;2.17;;;;;;;36.83;19.54;99015.03;5122179;27;40036;-78
2022/06/15 11:26:55;;;;;;;4.40;2.57;;;;;;;36.73;19.85;99001.09;5123831;27;42483;-75
2022/06/15 11:29:38;;;;;;;2.60;2.40;;;;;;;36.75;20.23;99001.69;5090677;28;41880;-80
2022/06/15 11:32:21;;;;;;;2.40;2.20;;;;;;;36.70;20.14;99007.19;5090894;28;41526;-78
2022/06/15 11:34:58;;;;;;;2.23;2.00;;;;;;;36.84;21.03;98999.28;5088966;28;40014;-77
2022/06/15 11:37:31;;;;;;;4.00;2.50;;;;;;;37.05;20.77;99003.88;5091314;28;42014;-80
2022/06/15 11:40:06;;;;;;;3.73;2.30;;;;;;;37.30;20.25;99006.88;5090892;28;41583;-80
2022/06/15 11:42:34;;;;;;;2.10;1.90;;;;;;;37.51;18.86;99009.75;5090191;28;41001;-80
2022/06/15 11:45:02;;;;;;;2.33;2.00;;;;;;;37.80;18.66;99027.66;5090890;28;39842;-78
2022/06/15 11:47:52;;;;;;;2.17;1.97;;;;;;;38.19;19.20;99013.47;5089954;28;40672;-84
2022/06/15 11:50:29;;;;;;;1.83;1.73;;;;;;;39.26;17.61;99026.38;5090239;28;44287;-80
2022/06/15 11:53:03;;;;;;;1.92;1.83;;;;;;;39.94;16.79;99024.03;5091836;28;42314;-78
2022/06/15 11:55:40;;;;;;;2.50;2.30;;;;;;;40.17;17.89;99006.75;5108611;27;40574;-78
2022/06/15 11:58:26;;;;;;;2.55;2.35;;;;;;;40.63;16.67;99020.38;5092403;28;42689;-83
2022/06/15 12:01:09;;;;;;;2.20;2.00;;;;;;;41.02;16.52;99009.28;5093216;28;41729;-78
2022/06/15 12:04:08;;;;;;;2.10;2.00;;;;;;;41.49;17.55;99005.81;5091754;28;42298;-82
2022/06/15 12:06:48;;;;;;;1.90;1.80;;;;;;;42.31;15.85;99022.38;5126007;27;40004;-79
2022/06/15 12:09:26;;;;;;;2.13;1.95;;;;;;;43.16;16.07;99015.81;5091780;28;42573;-79
2022/06/15 12:14:54;;;;;;;2.08;1.63;;;;;;;45.56;13.91;99005.53;5094439;28;43521;-81
2022/06/15 12:17:29;;;;;;;2.67;1.83;;;;;;;46.57;13.18;99017.72;5110169;28;41147;-77
2022/06/15 12:20:07;;;;;;;2.10;2.00;;;;;;;47.10;12.36;99009.81;5091509;28;41865;-78
2022/06/15 12:22:45;;;;;;;2.20;2.00;;;;;;;47.72;10.98;99043.03;5092906;28;41805;-82